createdAt,value
2019-04-03T00:03:10.829Z,14.53
2019-04-03T00:08:12.774Z,13.80
2019-04-03T00:13:14.732Z,14.53
2019-04-03T00:18:17.289Z,14.43
2019-04-03T00:23:20.598Z,14.60
2019-04-03T00:28:23.859Z,14.30
2019-04-03T00:33:26.064Z,14.70
2019-04-03T00:38:28.240Z,14.27
2019-04-03T00:43:30.145Z,14.30
2019-04-03T00:48:33.128Z,14.87
2019-04-03T00:53:35.304Z,14.27
2019-04-03T00:58:39.882Z,14.80
2019-04-03T01:03:41.845Z,14.30
2019-04-03T01:08:43.904Z,14.40
2019-04-03T01:13:45.799Z,13.97
2019-04-03T01:18:48.261Z,14.63
2019-04-03T01:23:50.953Z,14.83
2019-04-03T01:28:52.876Z,14.37
2019-04-03T01:33:54.797Z,14.23
2019-04-03T01:38:56.636Z,14.50
2019-04-03T01:43:58.515Z,14.57
2019-04-03T01:49:00.533Z,14.50
2019-04-03T01:54:03.420Z,14.70
2019-04-03T01:59:07.275Z,14.40
2019-04-03T02:04:12.035Z,14.63
2019-04-03T02:09:15.406Z,14.10
2019-04-03T02:14:17.952Z,13.80
2019-04-03T02:19:20.852Z,15.30
2019-04-03T02:24:22.804Z,14.60
2019-04-03T02:29:24.698Z,14.47
2019-04-03T02:34:26.560Z,15.47
2019-04-03T02:39:28.388Z,14.40
2019-04-03T02:44:30.622Z,15.37
2019-04-03T02:49:33.463Z,14.30
2019-04-03T02:54:40.156Z,14.93
2019-04-03T02:59:42.151Z,15.43
2019-04-03T03:04:44.140Z,15.50
2019-04-03T03:09:47.678Z,15.43
2019-04-03T03:14:50.334Z,15.33
2019-04-03T03:19:52.649Z,15.03
2019-04-03T03:24:58.009Z,14.77
2019-04-03T03:30:01.469Z,15.73
2019-04-03T03:35:12.277Z,15.47
2019-04-03T03:40:15.035Z,16.33
2019-04-03T03:45:19.495Z,15.03
2019-04-03T03:50:25.895Z,15.33
2019-04-03T03:55:29.776Z,16.67
2019-04-03T04:00:32.378Z,16.23
2019-04-03T04:05:36.204Z,15.67
2019-04-03T04:10:38.781Z,16.57
2019-04-03T04:15:42.656Z,16.43
2019-04-03T04:20:44.894Z,15.43
2019-04-03T04:25:46.881Z,16.43
2019-04-03T04:30:49.348Z,16.93
2019-04-03T04:35:52.505Z,16.40
2019-04-03T04:40:54.889Z,17.07
2019-04-03T04:45:56.874Z,17.87
2019-04-03T04:50:58.702Z,17.27
2019-04-03T04:56:00.820Z,16.43
2019-04-03T05:01:03.116Z,17.77
2019-04-03T05:06:05.550Z,17.13
2019-04-03T05:11:08.161Z,17.17
2019-04-03T05:16:10.349Z,17.93
2019-04-03T05:21:12.568Z,18.60
2019-04-03T05:26:14.782Z,17.37
2019-04-03T05:31:17.528Z,18.80
2019-04-03T05:36:19.393Z,17.93
2019-04-03T05:41:22.408Z,17.83
2019-04-03T05:46:25.330Z,17.73
2019-04-03T05:51:29.141Z,18.37
2019-04-03T05:56:31.746Z,19.07
2019-04-03T06:01:34.508Z,19.27
2019-04-03T06:06:36.391Z,18.27
2019-04-03T06:11:40.475Z,18.33
2019-04-03T06:16:42.223Z,20.27
2019-04-03T06:21:46.208Z,19.70
2019-04-03T06:26:48.950Z,19.47
2019-04-03T06:31:52.401Z,19.10
2019-04-03T06:36:54.308Z,19.03
2019-04-03T06:41:56.133Z,19.63
2019-04-03T06:46:58.724Z,18.67
2019-04-03T06:52:02.436Z,19.13
2019-04-03T06:57:04.375Z,19.33
2019-04-03T07:02:06.218Z,19.37
2019-04-03T07:07:08.136Z,19.63
2019-04-03T07:12:12.162Z,20.03
2019-04-03T07:17:14.997Z,19.70
2019-04-03T07:22:17.576Z,19.37
2019-04-03T07:27:19.578Z,19.43
2019-04-03T07:32:21.532Z,18.83
2019-04-03T07:37:23.726Z,19.40
2019-04-03T07:42:25.622Z,19.63
2019-04-03T07:47:28.141Z,20.10
2019-04-03T07:52:30.055Z,19.57
2019-04-03T07:57:32.191Z,19.80
2019-04-03T08:02:34.624Z,19.80
2019-04-03T08:07:37.270Z,19.43
2019-04-03T08:12:39.569Z,19.90
2019-04-03T08:17:42.425Z,20.03
2019-04-03T08:22:44.306Z,19.17
2019-04-03T08:27:46.312Z,18.70
2019-04-03T08:32:49.043Z,19.90
2019-04-03T08:37:51.327Z,17.90
2019-04-03T08:42:53.399Z,18.43
2019-04-03T08:47:55.436Z,17.00
2019-04-03T08:52:57.938Z,18.87
2019-04-03T08:58:01.733Z,18.27
2019-04-03T09:03:04.421Z,17.20
2019-04-03T09:08:07.127Z,17.33
2019-04-03T09:13:16.822Z,16.97
2019-04-03T09:18:13.516Z,16.53
2019-04-03T09:23:15.819Z,16.33
2019-04-03T09:28:18.356Z,17.43
2019-04-03T09:33:25.022Z,17.47
2019-04-03T09:38:27.597Z,17.03
2019-04-03T09:43:30.233Z,17.13
2019-04-03T09:48:32.124Z,17.13
2019-04-03T09:53:34.419Z,16.27
2019-04-03T09:58:37.529Z,16.77
2019-04-03T10:03:39.754Z,17.73
2019-04-03T10:08:42.687Z,16.00
2019-04-03T10:13:45.565Z,15.73
2019-04-03T10:18:47.393Z,16.20
2019-04-03T10:23:49.880Z,16.70
2019-04-03T10:28:52.776Z,17.23
2019-04-03T10:33:54.661Z,16.33
2019-04-03T10:38:56.981Z,16.70
2019-04-03T10:43:59.614Z,16.47
2019-04-03T10:49:02.219Z,15.53
2019-04-03T10:54:04.701Z,16.40
2019-04-03T10:59:12.135Z,16.63
2019-04-03T11:04:11.506Z,16.07
2019-04-03T11:09:14.015Z,15.83
2019-04-03T11:14:15.965Z,16.00
2019-04-03T11:19:19.650Z,16.60
2019-04-03T11:24:21.697Z,16.83
2019-04-03T11:29:24.011Z,15.20
2019-04-03T11:34:27.813Z,15.80
2019-04-03T11:39:30.022Z,15.00
2019-04-03T11:44:32.609Z,14.73
2019-04-03T11:49:34.967Z,14.80
2019-04-03T11:54:39.519Z,15.40
2019-04-03T11:59:41.381Z,15.17
2019-04-03T12:04:44.505Z,14.13
2019-04-03T12:09:47.229Z,14.83
2019-04-03T12:14:50.221Z,15.90
2019-04-03T12:19:53.070Z,16.10
2019-04-03T12:24:56.046Z,16.07
2019-04-03T12:29:58.580Z,17.33
2019-04-03T12:35:00.572Z,18.27
2019-04-03T12:40:04.982Z,17.30
2019-04-03T12:45:08.413Z,17.90
2019-04-03T12:50:12.902Z,17.20
2019-04-03T12:55:15.169Z,16.60
2019-04-03T13:00:18.444Z,17.70
2019-04-03T13:05:20.325Z,17.27
2019-04-03T13:10:22.378Z,17.07
2019-04-03T13:15:24.695Z,17.73
2019-04-03T13:20:27.901Z,16.37
2019-04-03T13:25:36.787Z,16.57
2019-04-03T13:30:39.408Z,18.37
2019-04-03T13:35:42.006Z,17.27
2019-04-03T13:40:44.018Z,17.37
2019-04-03T13:45:46.928Z,16.80
2019-04-03T13:50:49.027Z,17.97
2019-04-03T13:55:51.276Z,17.70
2019-04-03T14:01:00.767Z,17.27
2019-04-03T14:05:58.070Z,18.73
2019-04-03T14:11:00.396Z,17.30
2019-04-03T14:16:02.684Z,17.63
2019-04-03T14:21:05.102Z,17.73
2019-04-03T14:26:10.356Z,17.40
2019-04-03T14:31:11.993Z,16.57
2019-04-03T14:36:16.131Z,17.17
2019-04-03T14:41:19.289Z,16.47
2019-04-03T14:46:21.570Z,17.23
2019-04-03T14:51:23.440Z,17.17
2019-04-03T14:56:25.299Z,17.17
2019-04-03T15:01:27.315Z,16.80
2019-04-03T15:06:30.019Z,16.60
2019-04-03T15:11:34.379Z,17.07
2019-04-03T15:16:36.489Z,17.40
2019-04-03T15:21:38.813Z,22.83
2019-04-03T15:26:40.919Z,15.73
2019-04-03T15:31:43.194Z,15.97
2019-04-03T15:36:47.573Z,16.57
2019-04-03T15:41:51.732Z,16.73
2019-04-03T15:46:54.031Z,16.50
2019-04-03T15:51:56.945Z,15.83
2019-04-03T15:56:58.979Z,16.17
2019-04-03T16:02:01.875Z,16.47
2019-04-03T16:07:05.108Z,16.30
2019-04-03T16:12:08.072Z,16.13
2019-04-03T16:17:10.278Z,15.73
2019-04-03T16:22:12.627Z,16.73
2019-04-03T16:27:15.075Z,15.77
2019-04-03T16:32:17.605Z,15.00
2019-04-03T16:37:21.468Z,15.17
2019-04-03T16:42:23.710Z,14.67
2019-04-03T16:47:27.597Z,14.80
2019-04-03T16:52:31.594Z,14.70
2019-04-03T16:57:33.452Z,14.50
2019-04-03T17:02:35.637Z,14.83
2019-04-03T17:07:38.551Z,14.60
2019-04-03T17:12:40.517Z,13.53
2019-04-03T17:17:45.236Z,13.70
2019-04-03T17:22:46.932Z,14.17
2019-04-03T17:27:55.176Z,14.63
2019-04-03T17:32:53.385Z,14.27
2019-04-03T17:37:58.959Z,14.43
2019-04-03T17:42:59.356Z,14.13
2019-04-03T17:48:01.514Z,14.93
2019-04-03T17:53:06.341Z,15.63
2019-04-03T17:58:08.595Z,15.40
2019-04-03T18:03:10.779Z,15.90
2019-04-03T18:08:12.894Z,16.07
2019-04-03T18:13:15.177Z,15.17
2019-04-03T18:18:17.431Z,14.83
2019-04-03T18:23:21.744Z,15.07
2019-04-03T18:28:24.370Z,15.70
2019-04-03T18:33:26.206Z,15.43
2019-04-03T18:38:28.644Z,15.33
2019-04-03T18:43:30.685Z,16.53
2019-04-03T18:48:33.200Z,15.77
2019-04-03T18:53:35.441Z,15.87
2019-04-03T18:58:38.097Z,15.53
2019-04-03T19:03:41.485Z,16.27
2019-04-03T19:08:43.591Z,16.17
2019-04-03T19:13:49.113Z,15.33
2019-04-03T19:18:50.891Z,16.43
2019-04-03T19:23:54.250Z,16.60
2019-04-03T19:28:56.927Z,17.70
2019-04-03T19:33:59.231Z,17.63
2019-04-03T19:39:01.308Z,17.87
2019-04-03T19:44:05.626Z,19.30
2019-04-03T19:49:07.472Z,20.53
2019-04-03T19:54:09.893Z,19.50
2019-04-03T19:59:11.757Z,17.90
2019-04-03T20:04:15.694Z,17.77
2019-04-03T20:09:17.825Z,18.77
2019-04-03T20:14:20.184Z,18.27
2019-04-03T20:19:22.121Z,18.27
2019-04-03T20:24:25.393Z,18.83
2019-04-03T20:29:29.186Z,19.27
2019-04-03T20:34:31.489Z,18.47
2019-04-03T20:39:33.976Z,18.60
2019-04-03T20:44:38.673Z,19.43
2019-04-03T20:49:39.927Z,19.73
2019-04-03T20:54:41.884Z,19.97
2019-04-03T20:59:57.645Z,19.83
2019-04-03T21:04:47.601Z,19.67
2019-04-03T21:09:49.605Z,18.93
2019-04-03T21:14:51.809Z,18.57
2019-04-03T21:19:53.656Z,18.73
2019-04-03T21:24:56.565Z,18.97
2019-04-03T21:29:58.881Z,18.47
2019-04-03T21:35:03.022Z,18.57
2019-04-03T21:40:05.820Z,18.57
2019-04-03T21:45:08.273Z,17.93
2019-04-03T21:50:12.442Z,17.10
2019-04-03T21:55:14.732Z,17.80
2019-04-03T22:00:36.064Z,17.07
2019-04-03T22:05:38.665Z,17.27
2019-04-03T22:10:40.618Z,18.00
2019-04-03T22:15:45.269Z,17.57
2019-04-03T22:20:46.688Z,17.03
2019-04-03T22:25:48.607Z,16.47
2019-04-03T22:30:52.263Z,17.90
2019-04-03T22:35:54.337Z,16.73
2019-04-03T22:40:57.005Z,17.20
2019-04-03T22:45:58.876Z,17.57
2019-04-03T22:51:01.639Z,17.63
2019-04-03T22:56:05.089Z,16.40
2019-04-03T23:01:07.606Z,17.77
2019-04-03T23:06:10.186Z,17.27
2019-04-03T23:11:12.436Z,16.90
2019-04-03T23:16:14.630Z,16.93
2019-04-03T23:21:16.468Z,17.00
2019-04-03T23:26:19.376Z,16.87
2019-04-03T23:31:21.817Z,16.47
2019-04-03T23:36:24.018Z,15.90
2019-04-03T23:41:25.973Z,15.97
2019-04-03T23:46:28.802Z,16.00
2019-04-03T23:51:30.885Z,15.90
2019-04-03T23:56:33.762Z,16.77
